createdAt,value
2019-02-20T00:01:48.657Z,5.93
2019-02-20T00:04:19.060Z,7.73
2019-02-20T00:06:49.426Z,9.67
2019-02-20T00:09:19.814Z,9.27
2019-02-20T00:11:50.215Z,9.73
2019-02-20T00:14:23.301Z,11.60
2019-02-20T00:16:53.709Z,13.13
2019-02-20T00:19:24.116Z,16.00
2019-02-20T00:21:54.497Z,16.80
2019-02-20T00:24:24.971Z,18.10
2019-02-20T00:26:55.374Z,15.47
2019-02-20T00:29:25.776Z,14.17
2019-02-20T00:31:56.196Z,11.93
2019-02-20T00:34:26.580Z,10.33
2019-02-20T00:36:56.980Z,8.70
2019-02-20T00:39:30.051Z,8.73
2019-02-20T00:42:00.391Z,8.50
2019-02-20T00:44:32.357Z,6.63
2019-02-20T00:47:07.270Z,8.10
2019-02-20T00:49:39.102Z,7.30
2019-02-20T00:52:11.046Z,7.33
2019-02-20T00:54:41.447Z,7.70
2019-02-20T00:57:11.811Z,7.63
2019-02-20T00:59:42.220Z,6.60
2019-02-20T01:02:12.605Z,7.53
2019-02-20T01:04:43.005Z,7.13
2019-02-20T01:07:13.414Z,8.20
2019-02-20T01:09:43.788Z,8.83
2019-02-20T01:12:14.185Z,12.50
2019-02-20T01:14:44.567Z,15.63
2019-02-20T01:17:14.980Z,15.70
2019-02-20T01:19:45.409Z,14.37
2019-02-20T01:22:15.787Z,14.83
2019-02-20T01:24:46.168Z,12.90
2019-02-20T01:27:16.558Z,10.33
2019-02-20T01:29:46.986Z,10.13
2019-02-20T01:32:17.401Z,9.90
2019-02-20T01:34:47.789Z,10.90
2019-02-20T01:37:18.193Z,10.57
2019-02-20T01:39:49.565Z,11.83
2019-02-20T01:42:20.304Z,11.37
2019-02-20T01:44:50.663Z,11.23
2019-02-20T01:47:21.038Z,8.93
2019-02-20T01:49:51.423Z,9.07
2019-02-20T01:52:21.808Z,10.40
2019-02-20T01:54:52.215Z,10.40
2019-02-20T01:57:22.613Z,10.20
2019-02-20T01:59:52.994Z,10.53
2019-02-20T02:02:23.349Z,10.97
2019-02-20T02:04:53.742Z,10.83
2019-02-20T02:07:24.149Z,10.63
2019-02-20T02:09:54.553Z,10.70
2019-02-20T02:12:24.943Z,11.00
2019-02-20T02:14:55.359Z,11.97
2019-02-20T02:17:25.754Z,11.67
2019-02-20T02:19:56.144Z,12.20
2019-02-20T02:22:26.570Z,12.27
2019-02-20T02:24:56.997Z,12.03
2019-02-20T02:27:27.441Z,12.80
2019-02-20T02:29:57.867Z,11.80
2019-02-20T02:32:28.272Z,12.23
2019-02-20T02:35:00.259Z,11.77
2019-02-20T02:37:30.635Z,12.73
2019-02-20T02:40:01.009Z,14.17
2019-02-20T02:42:31.377Z,13.53
2019-02-20T02:45:01.818Z,13.50
2019-02-20T02:47:32.229Z,13.13
2019-02-20T02:50:02.625Z,13.63
2019-02-20T02:52:33.014Z,13.87
2019-02-20T02:55:03.397Z,14.07
2019-02-20T02:57:33.778Z,13.40
2019-02-20T03:00:05.590Z,12.17
2019-02-20T03:02:35.978Z,13.70
2019-02-20T03:05:07.622Z,13.13
2019-02-20T03:07:38.024Z,12.43
2019-02-20T03:10:08.709Z,13.30
2019-02-20T03:12:39.133Z,13.00
2019-02-20T03:15:10.117Z,12.90
2019-02-20T03:17:40.502Z,13.37
2019-02-20T03:20:10.941Z,12.80
2019-02-20T03:22:41.342Z,13.80
2019-02-20T03:25:11.749Z,13.53
2019-02-20T03:27:42.181Z,12.67
2019-02-20T03:30:15.090Z,13.37
2019-02-20T03:32:45.473Z,13.07
2019-02-20T03:35:15.848Z,13.13
2019-02-20T03:37:46.236Z,11.80
2019-02-20T03:40:16.650Z,10.70
2019-02-20T03:42:47.112Z,10.73
2019-02-20T03:45:17.522Z,10.30
2019-02-20T03:47:47.926Z,12.03
2019-02-20T03:50:18.299Z,10.63
2019-02-20T03:52:48.688Z,11.43
2019-02-20T03:55:19.104Z,11.43
2019-02-20T03:57:49.447Z,11.80
2019-02-20T04:00:19.864Z,12.50
2019-02-20T04:02:50.234Z,11.53
2019-02-20T04:05:20.649Z,13.20
2019-02-20T04:07:51.061Z,13.03
2019-02-20T04:10:21.496Z,12.60
2019-02-20T04:12:51.915Z,12.30
2019-02-20T04:15:22.338Z,11.50
2019-02-20T04:17:53.946Z,13.33
2019-02-20T04:20:24.365Z,13.17
2019-02-20T04:22:54.753Z,14.37
2019-02-20T04:25:25.185Z,15.17
2019-02-20T04:27:55.592Z,13.60
2019-02-20T04:30:25.986Z,15.20
2019-02-20T04:32:58.696Z,18.70
2019-02-20T04:35:29.202Z,22.20
2019-02-20T04:37:59.667Z,23.37
2019-02-20T04:40:30.085Z,23.50
2019-02-20T04:43:00.484Z,22.13
2019-02-20T04:45:30.848Z,20.63
2019-02-20T04:48:01.307Z,16.53
2019-02-20T04:50:31.707Z,15.30
2019-02-20T04:53:02.097Z,13.00
2019-02-20T04:55:32.497Z,12.80
2019-02-20T04:58:16.697Z,14.20
2019-02-20T05:00:47.139Z,12.93
2019-02-20T05:03:17.528Z,13.03
2019-02-20T05:05:47.903Z,11.93
2019-02-20T05:08:20.328Z,12.20
2019-02-20T05:10:51.816Z,11.70
2019-02-20T05:13:22.252Z,12.47
2019-02-20T05:15:52.667Z,12.67
2019-02-20T05:18:23.212Z,11.03
2019-02-20T05:20:53.612Z,13.17
2019-02-20T05:23:23.996Z,14.07
2019-02-20T05:25:54.352Z,14.43
2019-02-20T05:28:24.710Z,11.47
2019-02-20T05:30:55.125Z,12.27
2019-02-20T05:33:27.072Z,15.07
2019-02-20T05:35:57.486Z,14.47
2019-02-20T05:38:27.855Z,14.23
2019-02-20T05:40:58.245Z,13.83
2019-02-20T05:43:28.683Z,13.40
2019-02-20T05:46:00.651Z,12.63
2019-02-20T05:48:31.067Z,12.50
2019-02-20T05:51:02.008Z,12.37
2019-02-20T05:53:32.423Z,12.07
2019-02-20T05:56:02.821Z,12.20
2019-02-20T05:58:33.269Z,13.10
2019-02-20T06:01:03.732Z,9.20
2019-02-20T06:03:34.131Z,10.60
2019-02-20T06:06:04.563Z,9.97
2019-02-20T06:08:34.943Z,11.13
2019-02-20T06:11:14.423Z,10.77
2019-02-20T06:13:39.017Z,10.93
2019-02-20T06:16:09.445Z,10.20
2019-02-20T06:18:39.871Z,9.63
2019-02-20T06:21:10.302Z,10.47
2019-02-20T06:23:40.723Z,9.63
2019-02-20T06:26:11.178Z,8.37
2019-02-20T06:28:41.532Z,9.27
2019-02-20T06:31:11.955Z,9.13
2019-02-20T06:33:42.335Z,9.37
2019-02-20T06:36:12.709Z,8.97
2019-02-20T06:38:43.126Z,8.70
2019-02-20T06:41:13.580Z,9.23
2019-02-20T06:43:45.046Z,9.00
2019-02-20T06:46:15.473Z,9.10
2019-02-20T06:48:45.870Z,10.60
2019-02-20T06:51:16.298Z,9.60
2019-02-20T06:53:46.712Z,9.20
2019-02-20T06:56:17.140Z,8.40
2019-02-20T06:58:47.551Z,8.90
2019-02-20T07:01:19.592Z,8.67
2019-02-20T07:03:49.976Z,9.07
2019-02-20T07:06:44.478Z,8.20
2019-02-20T07:09:29.904Z,8.60
2019-02-20T07:12:06.054Z,7.83
2019-02-20T07:14:56.966Z,8.10
2019-02-20T07:17:45.503Z,7.33
2019-02-20T07:20:41.351Z,8.37
2019-02-20T07:23:33.136Z,9.70
2019-02-20T07:26:09.829Z,8.57
2019-02-20T07:28:51.886Z,8.50
2019-02-20T07:31:22.373Z,8.90
2019-02-20T07:33:52.806Z,8.23
2019-02-20T07:36:23.240Z,8.17
2019-02-20T07:38:53.800Z,7.80
2019-02-20T07:41:24.362Z,8.07
2019-02-20T07:44:01.752Z,8.03
2019-02-20T07:46:56.193Z,8.53
2019-02-20T07:50:55.076Z,8.83
2019-02-20T10:13:43.303Z,9.53
2019-02-20T10:38:21.049Z,10.60
2019-02-20T10:40:51.416Z,11.40
2019-02-20T10:49:33.305Z,11.07
2019-02-20T10:54:57.937Z,12.30
2019-02-20T10:57:47.042Z,13.63
2019-02-20T11:07:41.178Z,11.17
2019-02-20T11:10:25.521Z,10.27
2019-02-20T11:45:30.473Z,13.43
2019-02-20T11:54:36.974Z,11.43
2019-02-20T11:57:13.918Z,12.40
2019-02-20T12:47:52.968Z,10.50
2019-02-20T13:00:19.715Z,11.63
2019-02-20T13:06:59.424Z,9.47
2019-02-20T13:13:06.271Z,9.83
2019-02-20T13:18:39.315Z,10.60
2019-02-20T13:21:20.155Z,10.90
2019-02-20T13:23:55.455Z,10.87
2019-02-20T13:53:24.606Z,12.53
2019-02-20T14:02:04.127Z,13.80
2019-02-20T14:04:21.626Z,13.43
2019-02-20T14:06:55.755Z,13.00
2019-02-20T14:09:29.971Z,13.20
2019-02-20T14:15:26.848Z,15.33
2019-02-20T14:17:56.253Z,18.07
2019-02-20T14:20:32.155Z,19.97
2019-02-20T14:32:19.915Z,16.50
2019-02-20T14:37:56.559Z,15.60
2019-02-20T14:40:35.405Z,14.53
2019-02-20T14:49:17.247Z,15.50
2019-02-20T14:51:48.740Z,14.70
2019-02-20T14:57:42.465Z,14.00
2019-02-20T15:00:19.204Z,14.70
2019-02-20T15:02:50.475Z,14.60
2019-02-20T15:08:18.507Z,13.57
2019-02-20T15:13:48.481Z,14.23
2019-02-20T15:16:22.337Z,18.53
2019-02-20T15:19:01.413Z,13.87
2019-02-20T15:21:43.697Z,13.90
2019-02-20T15:24:17.848Z,14.70
2019-02-20T15:26:48.402Z,14.00
2019-02-20T15:42:03.081Z,12.97
2019-02-20T15:44:36.073Z,15.00
2019-02-20T15:50:18.127Z,13.73
2019-02-20T16:04:32.414Z,14.77
2019-02-20T17:19:47.503Z,25.07
2019-02-20T17:22:27.066Z,24.13
2019-02-20T17:25:08.846Z,24.77
2019-02-20T18:34:47.405Z,46.17
